createdAt,value
2023-10-22T00:00:01.071Z,98360.97
2023-10-22T00:02:59.112Z,98367.00
2023-10-22T00:05:26.276Z,98362.44
2023-10-22T00:07:53.662Z,98369.38
2023-10-22T00:10:20.622Z,98383.34
2023-10-22T00:12:48.040Z,98373.66
2023-10-22T00:15:15.846Z,98383.81
2023-10-22T00:17:43.299Z,98371.59
2023-10-22T00:20:11.127Z,98370.56
2023-10-22T00:22:40.511Z,98374.41
2023-10-22T00:25:07.810Z,98386.19
2023-10-22T00:27:35.126Z,98393.22
2023-10-22T00:30:04.491Z,98385.72
2023-10-22T00:32:31.916Z,98388.97
2023-10-22T00:34:58.999Z,98389.13
2023-10-22T00:37:26.677Z,98394.41
2023-10-22T00:39:53.759Z,98401.91
2023-10-22T00:42:22.086Z,98405.44
2023-10-22T00:44:51.486Z,98400.00
2023-10-22T00:47:19.108Z,98395.88
2023-10-22T00:49:48.025Z,98396.59
2023-10-22T00:52:16.372Z,98399.84
2023-10-22T00:54:43.918Z,98399.13
2023-10-22T00:57:11.261Z,98404.09
2023-10-22T00:59:38.548Z,98394.25
2023-10-22T01:02:05.998Z,98386.91
2023-10-22T01:04:32.975Z,98381.47
2023-10-22T01:07:00.424Z,98387.50
2023-10-22T01:09:27.570Z,98389.25
2023-10-22T01:12:02.845Z,98386.16
2023-10-22T01:14:34.802Z,98392.50
2023-10-22T01:17:02.358Z,98384.13
2023-10-22T01:19:30.071Z,98374.41
2023-10-22T01:21:58.660Z,98368.41
2023-10-22T01:24:26.623Z,98374.41
2023-10-22T01:26:53.949Z,98379.41
2023-10-22T01:29:20.994Z,98367.06
2023-10-22T01:31:48.765Z,98371.78
2023-10-22T01:34:16.036Z,98377.81
2023-10-22T01:36:43.230Z,98381.91
2023-10-22T01:39:16.517Z,98386.03
2023-10-22T01:41:44.145Z,98387.50
2023-10-22T01:44:11.106Z,98388.06
2023-10-22T01:46:38.401Z,98392.06
2023-10-22T01:49:05.446Z,98391.47
2023-10-22T01:51:32.685Z,98399.38
2023-10-22T01:53:59.667Z,98399.09
2023-10-22T01:56:26.930Z,98404.53
2023-10-22T01:58:53.978Z,98401.44
2023-10-22T02:01:21.543Z,98403.03
2023-10-22T02:03:48.706Z,98405.53
2023-10-22T02:06:16.327Z,98408.75
2023-10-22T02:08:43.555Z,98416.53
2023-10-22T02:11:11.306Z,98412.13
2023-10-22T02:13:39.185Z,98406.53
2023-10-22T02:16:06.579Z,98408.59
2023-10-22T02:18:35.462Z,98419.16
2023-10-22T02:21:04.628Z,98417.84
2023-10-22T02:23:31.834Z,98410.78
2023-10-22T02:25:59.055Z,98413.44
2023-10-22T02:28:25.967Z,98413.28
2023-10-22T02:30:53.431Z,98427.81
2023-10-22T02:33:20.740Z,98422.38
2023-10-22T02:35:48.378Z,98425.00
2023-10-22T02:38:16.207Z,98434.56
2023-10-22T02:40:49.813Z,98436.31
2023-10-22T02:43:17.208Z,98433.97
2023-10-22T02:45:54.768Z,98431.06
2023-10-22T02:48:22.529Z,98443.09
2023-10-22T02:50:50.380Z,98444.09
2023-10-22T02:53:17.683Z,98447.94
2023-10-22T02:55:48.085Z,98454.25
2023-10-22T02:58:15.000Z,98456.16
2023-10-22T03:00:42.323Z,98437.50
2023-10-22T03:03:09.484Z,98454.84
2023-10-22T03:05:38.016Z,98465.25
2023-10-22T03:08:05.248Z,98461.16
2023-10-22T03:10:41.002Z,98463.63
2023-10-22T03:13:07.854Z,98470.38
2023-10-22T03:15:37.520Z,98473.75
2023-10-22T03:18:04.796Z,98471.69
2023-10-22T03:20:34.667Z,98484.91
2023-10-22T03:23:04.794Z,98481.53
2023-10-22T03:25:32.245Z,98494.59
2023-10-22T03:27:59.294Z,98478.28
2023-10-22T03:30:26.543Z,98493.56
2023-10-22T03:32:59.040Z,98491.94
2023-10-22T03:35:26.367Z,98496.03
2023-10-22T03:37:55.744Z,98493.66
2023-10-22T03:40:23.002Z,98506.31
2023-10-22T03:42:49.990Z,98500.84
2023-10-22T03:45:17.502Z,98502.94
2023-10-22T03:47:44.937Z,98512.00
2023-10-22T03:50:12.249Z,98515.53
2023-10-22T03:52:43.901Z,98507.19
2023-10-22T03:55:14.482Z,98527.28
2023-10-22T03:57:41.349Z,98525.66
2023-10-22T04:00:09.135Z,98533.28
2023-10-22T04:02:39.320Z,98530.16
2023-10-22T04:05:09.848Z,98529.44
2023-10-22T04:07:37.095Z,98530.34
2023-10-22T04:10:10.998Z,98542.06
2023-10-22T04:12:40.495Z,98541.31
2023-10-22T04:15:08.249Z,98544.69
2023-10-22T04:17:35.284Z,98550.28
2023-10-22T04:20:02.993Z,98548.22
2023-10-22T04:22:29.899Z,98554.22
2023-10-22T04:24:57.194Z,98571.53
2023-10-22T04:27:24.146Z,98574.31
2023-10-22T04:29:51.410Z,98561.84
2023-10-22T04:32:18.571Z,98571.53
2023-10-22T04:34:45.835Z,98561.13
2023-10-22T04:37:16.580Z,98581.94
2023-10-22T04:39:46.266Z,98576.78
2023-10-22T04:42:13.161Z,98570.47
2023-10-22T04:44:42.345Z,98574.16
2023-10-22T04:47:09.324Z,98586.06
2023-10-22T04:49:36.631Z,98570.88
2023-10-22T04:52:03.582Z,98581.16
2023-10-22T04:54:30.939Z,98576.00
2023-10-22T04:56:57.921Z,98575.66
2023-10-22T04:59:25.145Z,98585.50
2023-10-22T05:01:52.167Z,98597.88
2023-10-22T05:04:19.487Z,98590.16
2023-10-22T05:06:46.792Z,98594.13
2023-10-22T05:09:16.307Z,98605.16
2023-10-22T05:11:43.324Z,98598.53
2023-10-22T05:14:14.400Z,98595.84
2023-10-22T05:16:42.842Z,98610.91
2023-10-22T05:19:10.143Z,98612.38
2023-10-22T05:21:39.293Z,98631.88
2023-10-22T05:24:06.988Z,98640.63
2023-10-22T05:26:34.123Z,98644.00
2023-10-22T05:29:01.371Z,98660.34
2023-10-22T05:31:31.178Z,98664.88
2023-10-22T05:33:58.420Z,98669.53
2023-10-22T05:36:25.837Z,98669.59
2023-10-22T05:38:53.175Z,98678.19
2023-10-22T05:41:20.384Z,98678.75
2023-10-22T05:43:47.722Z,98687.31
2023-10-22T05:46:14.819Z,98701.66
2023-10-22T05:48:44.547Z,98679.94
2023-10-22T05:51:11.604Z,98719.63
2023-10-22T05:53:38.901Z,98713.34
2023-10-22T05:56:05.907Z,98722.66
2023-10-22T05:58:33.278Z,98719.31
2023-10-22T06:01:00.232Z,98721.16
2023-10-22T06:03:27.710Z,98740.66
2023-10-22T06:05:54.859Z,98738.44
2023-10-22T06:08:22.105Z,98755.88
2023-10-22T06:10:49.197Z,98764.06
2023-10-22T06:13:18.900Z,98779.44
2023-10-22T06:15:49.000Z,98775.59
2023-10-22T06:18:16.480Z,98779.25
2023-10-22T06:20:43.560Z,98759.38
2023-10-22T06:23:10.816Z,98782.00
2023-10-22T06:25:37.730Z,98785.38
2023-10-22T06:28:05.173Z,98784.97
2023-10-22T06:30:32.196Z,98794.25
2023-10-22T06:32:59.928Z,98801.81
2023-10-22T06:35:30.407Z,98799.19
2023-10-22T06:37:57.837Z,98808.84
2023-10-22T06:40:25.416Z,98819.03
2023-10-22T06:42:55.084Z,98825.84
2023-10-22T06:45:22.220Z,98825.13
2023-10-22T06:47:49.621Z,98818.25
2023-10-22T06:50:20.040Z,98814.16
2023-10-22T06:52:47.408Z,98800.56
2023-10-22T06:55:14.370Z,98812.28
2023-10-22T06:57:42.726Z,98824.56
2023-10-22T07:00:14.207Z,98832.53
2023-10-22T07:02:41.915Z,98831.56
2023-10-22T07:05:11.967Z,98832.84
2023-10-22T07:07:43.111Z,98842.53
2023-10-22T07:10:13.537Z,98836.78
2023-10-22T07:12:44.381Z,98851.81
2023-10-22T07:15:13.505Z,98849.69
2023-10-22T07:17:41.253Z,98866.38
2023-10-22T07:20:08.504Z,98864.50
2023-10-22T07:22:35.765Z,98876.34
2023-10-22T07:25:02.852Z,98876.25
2023-10-22T07:27:32.327Z,98887.53
2023-10-22T07:29:59.438Z,98890.13
2023-10-22T07:32:29.125Z,98882.63
2023-10-22T07:34:56.326Z,98896.38
2023-10-22T07:37:24.097Z,98903.59
2023-10-22T07:39:51.019Z,98911.75
2023-10-22T07:42:18.466Z,98904.63
2023-10-22T07:44:45.739Z,98901.56
2023-10-22T07:47:13.243Z,98905.13
2023-10-22T07:49:40.258Z,98908.66
2023-10-22T07:52:07.589Z,98914.00
2023-10-22T07:54:34.764Z,98922.41
2023-10-22T07:57:02.185Z,98931.22
2023-10-22T07:59:29.297Z,98934.44
2023-10-22T08:01:58.993Z,98937.13
2023-10-22T08:04:26.147Z,98930.19
2023-10-22T08:06:53.512Z,98933.59
2023-10-22T08:09:20.641Z,98935.75
2023-10-22T08:11:48.218Z,98937.53
2023-10-22T08:14:15.254Z,98939.63
2023-10-22T08:16:42.560Z,98938.53
2023-10-22T08:19:09.492Z,98945.34
2023-10-22T08:21:36.751Z,98958.41
2023-10-22T08:24:04.041Z,98957.13
2023-10-22T08:26:31.359Z,98950.97
2023-10-22T08:28:58.286Z,98954.00
2023-10-22T08:31:28.573Z,98961.47
2023-10-22T08:33:55.611Z,98963.56
2023-10-22T08:36:23.654Z,98964.53
2023-10-22T08:38:50.856Z,98968.97
2023-10-22T08:41:21.332Z,98967.31
2023-10-22T08:43:48.905Z,98980.28
2023-10-22T08:46:18.713Z,98983.50
2023-10-22T08:48:49.860Z,98989.56
2023-10-22T08:51:19.103Z,98997.22
2023-10-22T08:53:46.066Z,98989.09
2023-10-22T08:56:14.442Z,98998.34
2023-10-22T08:58:41.339Z,98998.03
2023-10-22T09:01:08.809Z,99005.41
2023-10-22T09:03:36.390Z,99014.16
2023-10-22T09:06:05.273Z,99001.56
2023-10-22T09:08:43.883Z,99008.66
2023-10-22T09:11:12.684Z,99006.53
2023-10-22T09:13:39.637Z,99015.50
2023-10-22T09:16:06.954Z,99017.72
2023-10-22T09:18:34.345Z,99019.13
2023-10-22T09:21:08.173Z,99025.47
2023-10-22T09:23:35.259Z,99037.63
2023-10-22T09:26:02.521Z,99033.28
2023-10-22T09:28:30.186Z,99042.59
2023-10-22T09:31:04.516Z,99043.31
2023-10-22T09:33:34.849Z,99043.56
2023-10-22T09:36:03.521Z,99057.19
2023-10-22T09:38:50.856Z,99064.16
2023-10-22T09:41:24.763Z,99063.59
2023-10-22T09:43:57.641Z,99058.00
2023-10-22T09:46:36.830Z,99067.41
2023-10-22T09:49:10.954Z,99060.69
2023-10-22T09:51:38.329Z,99067.72
2023-10-22T09:54:07.435Z,99060.94
2023-10-22T09:56:52.522Z,99071.88
2023-10-22T09:59:24.910Z,99059.31
2023-10-22T10:01:52.600Z,99062.53
2023-10-22T10:04:24.277Z,99067.72
2023-10-22T10:06:53.521Z,99073.31
2023-10-22T10:09:21.620Z,99062.53
2023-10-22T10:11:49.547Z,99067.31
2023-10-22T10:14:35.221Z,99071.03
2023-10-22T10:17:02.726Z,99076.69
2023-10-22T10:19:29.930Z,99070.59
2023-10-22T10:21:57.415Z,99079.09
2023-10-22T10:24:28.284Z,99085.94
2023-10-22T10:26:58.917Z,99082.31
2023-10-22T10:29:26.939Z,99086.31
2023-10-22T10:31:55.189Z,99093.25
2023-10-22T10:34:34.612Z,99094.88
2023-10-22T10:37:12.174Z,99092.22
2023-10-22T10:39:51.803Z,99108.59
2023-10-22T10:42:31.222Z,99102.69
2023-10-22T10:45:04.649Z,99097.78
2023-10-22T10:47:36.040Z,99102.38
2023-10-22T10:50:06.607Z,99110.91
2023-10-22T10:52:42.602Z,99109.56
2023-10-22T10:55:12.125Z,99120.69
2023-10-22T10:57:40.678Z,99114.72
2023-10-22T11:00:11.159Z,99112.44
2023-10-22T11:02:42.499Z,99119.28
2023-10-22T11:05:12.677Z,99127.41
2023-10-22T11:07:40.828Z,99125.53
2023-10-22T11:10:09.124Z,99119.59
2023-10-22T11:12:39.888Z,99123.47
2023-10-22T11:15:09.168Z,99118.63
2023-10-22T11:17:37.241Z,99123.47
2023-10-22T11:20:07.061Z,99132.34
2023-10-22T11:22:34.302Z,99129.25
2023-10-22T11:25:02.024Z,99133.84
2023-10-22T11:27:29.466Z,99140.50
2023-10-22T11:29:57.212Z,99142.13
2023-10-22T11:32:24.734Z,99132.84
2023-10-22T11:34:51.906Z,99136.06
2023-10-22T11:37:32.356Z,99153.34
2023-10-22T11:39:59.602Z,99139.09
2023-10-22T11:42:33.683Z,99146.56
2023-10-22T11:45:05.860Z,99144.38
2023-10-22T11:47:33.723Z,99140.97
2023-10-22T11:50:02.364Z,99143.47
2023-10-22T11:52:38.350Z,99145.81
2023-10-22T11:55:09.094Z,99150.66
2023-10-22T11:57:40.517Z,99153.78
2023-10-22T12:00:08.167Z,99145.38
2023-10-22T12:02:38.356Z,99146.53
2023-10-22T12:05:06.101Z,99151.13
2023-10-22T12:07:33.322Z,99153.63
2023-10-22T12:10:00.494Z,99148.75
2023-10-22T12:12:27.796Z,99145.66
2023-10-22T12:14:59.201Z,99151.69
2023-10-22T12:17:27.827Z,99146.38
2023-10-22T12:19:55.203Z,99149.31
2023-10-22T12:22:22.575Z,99158.19
2023-10-22T12:24:52.382Z,99148.59
2023-10-22T12:27:22.262Z,99148.91
2023-10-22T12:29:49.393Z,99153.78
2023-10-22T12:32:16.704Z,99154.78
2023-10-22T12:34:43.869Z,99151.44
2023-10-22T12:37:12.093Z,99152.63
2023-10-22T12:39:39.319Z,99152.50
2023-10-22T12:42:12.222Z,99156.78
2023-10-22T12:44:43.054Z,99155.88
2023-10-22T12:47:14.116Z,99158.22
2023-10-22T12:49:41.727Z,99159.41
2023-10-22T12:52:12.918Z,99165.91
2023-10-22T12:54:42.621Z,99155.41
2023-10-22T12:57:12.180Z,99169.56
2023-10-22T12:59:40.825Z,99166.34
2023-10-22T13:02:08.637Z,99168.59
2023-10-22T13:04:36.359Z,99173.31
2023-10-22T13:07:05.145Z,99170.66
2023-10-22T13:09:32.748Z,99174.03
2023-10-22T13:12:00.267Z,99180.09
2023-10-22T13:14:27.875Z,99180.22
2023-10-22T13:16:55.625Z,99168.69
2023-10-22T13:19:23.851Z,99181.28
2023-10-22T13:21:52.401Z,99181.13
2023-10-22T13:24:22.020Z,99187.31
2023-10-22T13:26:51.848Z,99189.41
2023-10-22T13:29:19.887Z,99193.97
2023-10-22T13:31:47.607Z,99194.69
2023-10-22T13:34:16.865Z,99194.97
2023-10-22T13:36:44.127Z,99197.00
2023-10-22T13:39:11.240Z,99199.47
2023-10-22T13:41:38.502Z,99205.06
2023-10-22T13:44:06.234Z,99205.63
2023-10-22T13:46:35.667Z,99208.88
2023-10-22T13:49:02.988Z,99202.97
2023-10-22T13:51:30.350Z,99215.91
2023-10-22T13:54:02.051Z,99213.56
2023-10-22T13:56:31.657Z,99215.03
2023-10-22T13:58:58.565Z,99208.41
2023-10-22T14:01:25.932Z,99219.31
2023-10-22T14:03:55.254Z,99212.97
2023-10-22T14:06:23.586Z,99219.00
2023-10-22T14:08:55.673Z,99210.75
2023-10-22T14:11:23.175Z,99219.19
2023-10-22T14:13:52.495Z,99223.19
2023-10-22T14:16:21.863Z,99234.72
2023-10-22T14:18:51.236Z,99229.63
2023-10-22T14:21:21.907Z,99222.97
2023-10-22T14:23:48.986Z,99224.59
2023-10-22T14:26:18.891Z,99219.91
2023-10-22T14:28:48.223Z,99220.19
2023-10-22T14:31:15.616Z,99226.38
2023-10-22T14:33:42.840Z,99224.59
2023-10-22T14:36:13.676Z,99226.47
2023-10-22T14:38:40.786Z,99224.34
2023-10-22T14:41:08.068Z,99229.31
2023-10-22T14:43:35.143Z,99228.19
2023-10-22T14:46:06.523Z,99226.81
2023-10-22T14:48:34.097Z,99236.00
2023-10-22T14:51:02.428Z,99232.41
2023-10-22T14:53:30.697Z,99243.69
2023-10-22T14:56:02.743Z,99244.56
2023-10-22T14:58:30.353Z,99251.72
2023-10-22T15:01:02.164Z,99249.16
2023-10-22T15:03:29.792Z,99253.19
2023-10-22T15:05:57.470Z,99256.09
2023-10-22T15:08:24.825Z,99255.13
2023-10-22T15:10:53.121Z,99262.22
2023-10-22T15:13:20.580Z,99261.06
2023-10-22T15:15:48.764Z,99268.38
2023-10-22T15:18:16.355Z,99268.84
2023-10-22T15:20:45.524Z,99270.06
2023-10-22T15:23:18.725Z,99274.97
2023-10-22T15:25:48.235Z,99284.38
2023-10-22T15:28:15.675Z,99283.06
2023-10-22T15:30:43.649Z,99281.31
2023-10-22T15:33:11.178Z,99283.97
2023-10-22T15:35:38.549Z,99295.38
2023-10-22T15:38:09.746Z,99299.50
2023-10-22T15:40:37.615Z,99290.59
2023-10-22T15:43:05.013Z,99296.38
2023-10-22T15:45:33.310Z,99301.09
2023-10-22T15:48:02.491Z,99296.09
2023-10-22T15:50:30.841Z,99291.84
2023-10-22T15:53:00.847Z,99298.03
2023-10-22T15:55:29.459Z,99291.56
2023-10-22T15:57:56.620Z,99300.69
2023-10-22T16:00:24.821Z,99296.06
2023-10-22T16:02:52.193Z,99300.91
2023-10-22T16:05:20.180Z,99303.53
2023-10-22T16:07:47.520Z,99303.19
2023-10-22T16:10:17.640Z,99302.44
2023-10-22T16:12:44.920Z,99311.38
2023-10-22T16:15:19.758Z,99304.84
2023-10-22T16:17:46.813Z,99313.22
2023-10-22T16:20:14.955Z,99307.66
2023-10-22T16:22:42.264Z,99312.84
2023-10-22T16:25:09.899Z,99315.81
2023-10-22T16:27:42.569Z,99314.31
2023-10-22T16:30:10.602Z,99316.59
2023-10-22T16:32:38.175Z,99315.47
2023-10-22T16:35:05.937Z,99321.22
2023-10-22T16:37:36.301Z,99320.84
2023-10-22T16:40:04.093Z,99330.69
2023-10-22T16:42:32.599Z,99337.19
2023-10-22T16:45:01.622Z,99332.56
2023-10-22T16:47:29.051Z,99331.22
2023-10-22T16:49:57.865Z,99340.72
2023-10-22T16:52:25.416Z,99335.13
2023-10-22T16:54:53.307Z,99333.81
2023-10-22T16:57:20.494Z,99341.78
2023-10-22T16:59:49.162Z,99344.78
2023-10-22T17:02:18.559Z,99348.28
2023-10-22T17:04:48.175Z,99348.47
2023-10-22T17:07:15.959Z,99351.97
2023-10-22T17:09:44.020Z,99357.16
2023-10-22T17:12:11.769Z,99360.28
2023-10-22T17:14:52.301Z,99357.31
2023-10-22T17:17:20.939Z,99367.53
2023-10-22T17:19:49.087Z,99365.81
2023-10-22T17:22:16.941Z,99359.88
2023-10-22T17:24:44.908Z,99377.66
2023-10-22T17:27:12.620Z,99375.25
2023-10-22T17:29:40.704Z,99379.69
2023-10-22T17:32:08.894Z,99386.16
2023-10-22T17:34:36.748Z,99382.25
2023-10-22T17:37:05.818Z,99378.31
2023-10-22T17:39:36.079Z,99376.09
2023-10-22T17:42:04.503Z,99376.44
2023-10-22T17:44:32.463Z,99377.13
2023-10-22T17:47:01.910Z,99376.19
2023-10-22T17:49:29.836Z,99376.34
2023-10-22T17:51:58.036Z,99373.16
2023-10-22T17:54:26.062Z,99375.53
2023-10-22T17:56:53.943Z,99375.88
2023-10-22T17:59:22.161Z,99383.31
2023-10-22T18:01:49.765Z,99376.38
2023-10-22T18:04:17.897Z,99377.81
2023-10-22T18:06:48.599Z,99376.16
2023-10-22T18:09:19.359Z,99382.41
2023-10-22T18:11:47.226Z,99382.00
2023-10-22T18:14:19.190Z,99387.88
2023-10-22T18:16:47.377Z,99390.63
2023-10-22T18:19:27.076Z,99383.53
2023-10-22T18:22:05.850Z,99392.66
2023-10-22T18:24:39.295Z,99387.59
2023-10-22T18:27:07.466Z,99390.81
2023-10-22T18:29:35.583Z,99389.25
2023-10-22T18:32:03.436Z,99393.66
2023-10-22T18:34:31.473Z,99398.06
2023-10-22T18:36:58.724Z,99405.22
2023-10-22T18:39:29.370Z,99408.00
2023-10-22T18:42:08.010Z,99405.22
2023-10-22T18:44:43.114Z,99407.88
2023-10-22T18:47:10.212Z,99406.59
2023-10-22T18:49:38.096Z,99417.31
2023-10-22T18:52:06.035Z,99408.56
2023-10-22T18:54:34.395Z,99411.97
2023-10-22T18:57:03.398Z,99410.91
2023-10-22T18:59:34.028Z,99414.00
2023-10-22T19:02:04.153Z,99423.47
2023-10-22T19:04:35.292Z,99420.16
2023-10-22T19:07:03.354Z,99425.38
2023-10-22T19:09:32.470Z,99424.03
2023-10-22T19:12:00.666Z,99426.72
2023-10-22T19:14:32.241Z,99424.06
2023-10-22T19:17:00.265Z,99434.66
2023-10-22T19:19:29.086Z,99437.00
2023-10-22T19:21:57.915Z,99440.13
2023-10-22T19:24:27.678Z,99441.00
2023-10-22T19:26:56.334Z,99439.63
2023-10-22T19:29:24.171Z,99451.72
2023-10-22T19:31:57.805Z,99445.63
2023-10-22T19:34:26.182Z,99454.38
2023-10-22T19:36:53.782Z,99455.34
2023-10-22T19:39:21.825Z,99453.22
2023-10-22T19:41:50.935Z,99457.59
2023-10-22T19:44:19.694Z,99469.88
2023-10-22T19:46:47.895Z,99474.34
2023-10-22T19:49:15.999Z,99475.53
2023-10-22T19:51:44.056Z,99478.19
2023-10-22T19:54:12.411Z,99477.81
2023-10-22T19:56:40.707Z,99484.66
2023-10-22T19:59:12.247Z,99479.22
2023-10-22T20:01:39.969Z,99478.03
2023-10-22T20:04:08.429Z,99489.66
2023-10-22T20:06:37.016Z,99492.28
2023-10-22T20:09:05.509Z,99491.44
2023-10-22T20:11:33.091Z,99498.31
2023-10-22T20:14:01.062Z,99500.44
2023-10-22T20:16:30.425Z,99504.78
2023-10-22T20:18:58.859Z,99508.16
2023-10-22T20:21:28.309Z,99509.97
2023-10-22T20:23:57.883Z,99513.25
2023-10-22T20:26:26.097Z,99512.72
2023-10-22T20:28:53.862Z,99512.66
2023-10-22T20:31:21.694Z,99507.53
2023-10-22T20:33:49.757Z,99507.75
2023-10-22T20:36:18.524Z,99512.47
2023-10-22T20:38:47.325Z,99499.59
2023-10-22T20:41:14.924Z,99510.59
2023-10-22T20:43:44.130Z,99503.53
2023-10-22T20:46:13.854Z,99504.84
2023-10-22T20:48:41.748Z,99502.91
2023-10-22T20:51:14.716Z,99514.81
2023-10-22T20:53:47.193Z,99512.34
2023-10-22T20:56:21.230Z,99510.91
2023-10-22T20:58:49.253Z,99506.75
2023-10-22T21:01:17.658Z,99515.56
2023-10-22T21:03:46.453Z,99517.66
2023-10-22T21:06:15.081Z,99511.75
2023-10-22T21:08:43.172Z,99510.53
2023-10-22T21:11:11.073Z,99515.19
2023-10-22T21:13:38.492Z,99506.50
2023-10-22T21:16:05.692Z,99502.59
2023-10-22T21:18:33.165Z,99508.72
2023-10-22T21:21:00.602Z,99505.59
2023-10-22T21:23:28.055Z,99505.72
2023-10-22T21:25:56.108Z,99506.28
2023-10-22T21:28:23.590Z,99508.16
2023-10-22T21:30:50.700Z,99507.44
2023-10-22T21:33:24.339Z,99512.06
2023-10-22T21:36:01.431Z,99511.16
2023-10-22T21:38:28.885Z,99511.66
2023-10-22T21:40:56.141Z,99514.97
2023-10-22T21:43:24.760Z,99512.22
2023-10-22T21:45:51.971Z,99512.75
2023-10-22T21:48:19.599Z,99512.44
2023-10-22T21:50:48.969Z,99511.72
2023-10-22T21:53:16.366Z,99503.44
2023-10-22T21:55:51.408Z,99503.44
2023-10-22T21:58:19.068Z,99508.72
2023-10-22T22:00:46.125Z,99509.00
2023-10-22T22:03:14.835Z,99520.34
2023-10-22T22:05:42.052Z,99525.16
2023-10-22T22:08:09.598Z,99513.72
2023-10-22T22:10:37.030Z,99510.75
2023-10-22T22:13:04.362Z,99512.59
2023-10-22T22:15:31.482Z,99510.28
2023-10-22T22:17:58.796Z,99513.06
2023-10-22T22:20:26.497Z,99516.88
2023-10-22T22:22:53.894Z,99521.19
2023-10-22T22:25:23.796Z,99520.44
2023-10-22T22:27:56.280Z,99530.25
2023-10-22T22:30:23.358Z,99527.78
2023-10-22T22:32:50.750Z,99529.03
2023-10-22T22:35:19.199Z,99535.31
2023-10-22T22:37:47.236Z,99542.38
2023-10-22T22:40:14.389Z,99537.63
2023-10-22T22:42:44.052Z,99536.41
2023-10-22T22:45:11.261Z,99535.16
2023-10-22T22:47:41.111Z,99534.94
2023-10-22T22:50:08.523Z,99543.78
2023-10-22T22:52:35.756Z,99543.03
2023-10-22T22:55:04.221Z,99552.84
2023-10-22T22:57:32.289Z,99542.84
2023-10-22T23:00:00.229Z,99548.34
2023-10-22T23:02:27.723Z,99539.84
2023-10-22T23:04:55.697Z,99537.59
2023-10-22T23:07:27.378Z,99543.13
2023-10-22T23:09:54.619Z,99541.91
2023-10-22T23:12:24.521Z,99543.41
2023-10-22T23:14:52.168Z,99540.16
2023-10-22T23:17:22.523Z,99538.91
2023-10-22T23:19:52.007Z,99530.13
2023-10-22T23:22:19.482Z,99535.13
2023-10-22T23:24:46.472Z,99539.41
2023-10-22T23:27:13.823Z,99537.66
2023-10-22T23:29:43.299Z,99539.19
2023-10-22T23:32:10.599Z,99537.44
2023-10-22T23:34:37.798Z,99541.19
2023-10-22T23:37:07.737Z,99536.69
2023-10-22T23:39:34.751Z,99534.19
2023-10-22T23:42:04.355Z,99545.47
2023-10-22T23:44:31.280Z,99540.16
2023-10-22T23:47:00.894Z,99545.19
2023-10-22T23:49:28.546Z,99536.88
2023-10-22T23:51:55.861Z,99539.63
2023-10-22T23:54:22.918Z,99537.63
2023-10-22T23:56:50.306Z,99527.34
2023-10-22T23:59:17.204Z,99542.63
